createdAt,value
2023-07-22T00:01:35.907Z,4.60
2023-07-22T00:04:39.137Z,4.50
2023-07-22T00:07:42.468Z,4.13
2023-07-22T00:10:45.254Z,4.17
2023-07-22T00:13:47.807Z,4.70
2023-07-22T00:16:50.235Z,4.75
2023-07-22T00:19:52.716Z,4.93
2023-07-22T00:22:57.996Z,5.13
2023-07-22T00:26:01.536Z,5.75
2023-07-22T00:29:04.162Z,6.20
2023-07-22T00:32:08.402Z,6.27
2023-07-22T00:35:11.144Z,6.95
2023-07-22T00:38:23.501Z,6.60
2023-07-22T00:41:27.365Z,6.53
2023-07-22T00:44:30.815Z,6.78
2023-07-22T00:47:35.032Z,6.57
2023-07-22T00:50:37.778Z,6.60
2023-07-22T00:53:40.239Z,6.50
2023-07-22T00:56:45.488Z,7.05
2023-07-22T00:59:48.812Z,6.43
2023-07-22T01:02:54.650Z,6.20
2023-07-22T01:06:01.774Z,7.05
2023-07-22T01:09:08.893Z,7.07
2023-07-22T01:12:12.977Z,6.57
2023-07-22T01:15:17.012Z,6.68
2023-07-22T01:18:20.324Z,6.28
2023-07-22T01:21:24.802Z,7.10
2023-07-22T01:24:32.927Z,7.22
2023-07-22T01:27:36.506Z,7.20
2023-07-22T01:30:39.230Z,7.10
2023-07-22T01:33:41.931Z,6.90
2023-07-22T01:36:49.015Z,7.10
2023-07-22T01:39:51.923Z,5.80
2023-07-22T01:42:54.460Z,6.20
2023-07-22T01:46:00.103Z,5.82
2023-07-22T01:49:11.402Z,6.25
2023-07-22T01:52:23.686Z,6.55
2023-07-22T01:55:27.200Z,6.78
2023-07-22T01:58:30.595Z,6.10
2023-07-22T02:01:33.952Z,5.72
2023-07-22T02:04:36.984Z,5.83
2023-07-22T02:07:41.052Z,5.57
2023-07-22T02:10:44.780Z,5.93
2023-07-22T02:13:47.180Z,5.93
2023-07-22T02:16:50.249Z,6.05
2023-07-22T02:19:52.852Z,6.18
2023-07-22T02:22:56.320Z,6.15
2023-07-22T02:25:59.993Z,5.43
2023-07-22T02:29:03.100Z,5.95
2023-07-22T02:32:07.067Z,6.47
2023-07-22T02:35:10.624Z,6.03
2023-07-22T02:38:15.502Z,5.65
2023-07-22T02:41:18.329Z,5.93
2023-07-22T02:44:21.904Z,5.53
2023-07-22T02:47:24.863Z,5.95
2023-07-22T02:50:27.858Z,6.25
2023-07-22T02:53:30.701Z,5.75
2023-07-22T02:56:33.739Z,6.55
2023-07-22T02:59:36.191Z,6.00
2023-07-22T03:02:40.138Z,6.35
2023-07-22T03:05:42.749Z,6.00
2023-07-22T03:08:45.269Z,5.70
2023-07-22T03:11:53.071Z,5.82
2023-07-22T03:14:56.405Z,6.23
2023-07-22T03:18:00.647Z,5.40
2023-07-22T03:21:03.938Z,6.13
2023-07-22T03:24:07.506Z,6.25
2023-07-22T03:27:10.119Z,6.57
2023-07-22T03:30:18.542Z,6.32
2023-07-22T03:33:20.986Z,5.85
2023-07-22T03:36:24.328Z,6.80
2023-07-22T03:39:27.288Z,6.38
2023-07-22T03:42:30.596Z,6.78
2023-07-22T03:45:35.111Z,6.93
2023-07-22T03:48:38.446Z,6.22
2023-07-22T03:51:41.674Z,6.57
2023-07-22T03:54:44.632Z,6.25
2023-07-22T03:57:49.114Z,6.55
2023-07-22T04:00:51.940Z,6.32
2023-07-22T04:03:54.529Z,6.18
2023-07-22T04:06:57.221Z,5.87
2023-07-22T04:10:00.014Z,6.57
2023-07-22T04:13:03.259Z,6.88
2023-07-22T04:16:06.755Z,6.97
2023-07-22T04:19:09.532Z,7.20
2023-07-22T04:22:11.917Z,7.35
2023-07-22T04:25:14.384Z,7.35
2023-07-22T04:28:21.074Z,7.38
2023-07-22T04:31:23.887Z,7.53
2023-07-22T04:34:30.765Z,7.28
2023-07-22T04:37:36.508Z,7.50
2023-07-22T04:40:43.584Z,8.25
2023-07-22T04:43:46.274Z,8.07
2023-07-22T04:46:49.055Z,8.30
2023-07-22T04:49:51.629Z,9.40
2023-07-22T04:52:57.100Z,8.80
2023-07-22T04:55:59.887Z,9.07
2023-07-22T04:59:02.284Z,9.02
2023-07-22T05:02:04.866Z,9.68
2023-07-22T05:05:08.208Z,9.10
2023-07-22T05:08:16.886Z,8.73
2023-07-22T05:11:19.673Z,8.70
2023-07-22T05:14:22.093Z,8.25
2023-07-22T05:17:30.648Z,7.40
2023-07-22T05:20:33.676Z,6.97
2023-07-22T05:23:36.366Z,7.40
2023-07-22T05:26:39.310Z,7.30
2023-07-22T05:29:42.615Z,6.72
2023-07-22T05:32:45.791Z,6.05
2023-07-22T05:35:49.445Z,5.88
2023-07-22T05:38:54.250Z,6.10
2023-07-22T05:41:57.252Z,5.55
2023-07-22T05:45:01.407Z,5.60
2023-07-22T05:48:04.225Z,4.60
2023-07-22T05:51:07.129Z,3.88
2023-07-22T05:54:10.099Z,4.20
2023-07-22T05:57:15.657Z,4.00
2023-07-22T06:00:18.655Z,3.75
2023-07-22T06:03:23.078Z,4.07
2023-07-22T06:06:25.906Z,4.65
2023-07-22T06:09:28.759Z,3.83
2023-07-22T06:12:32.179Z,3.65
2023-07-22T06:15:41.372Z,3.60
2023-07-22T06:18:44.166Z,3.50
2023-07-22T06:21:46.848Z,3.60
2023-07-22T06:24:49.430Z,3.33
2023-07-22T06:27:53.184Z,3.97
2023-07-22T06:30:57.421Z,3.13
2023-07-22T06:34:00.752Z,3.20
2023-07-22T06:37:04.429Z,2.90
2023-07-22T06:40:07.893Z,2.77
2023-07-22T06:43:10.320Z,3.30
2023-07-22T06:46:12.847Z,3.03
2023-07-22T06:49:15.323Z,3.60
2023-07-22T06:52:18.196Z,3.28
2023-07-22T06:55:24.195Z,3.20
2023-07-22T06:58:28.391Z,3.40
2023-07-22T07:01:30.820Z,3.45
2023-07-22T07:04:34.331Z,3.15
2023-07-22T07:07:36.969Z,2.80
2023-07-22T07:10:43.264Z,3.10
2023-07-22T07:13:46.316Z,3.58
2023-07-22T07:16:49.142Z,3.10
2023-07-22T07:19:51.620Z,4.07
2023-07-22T07:22:54.051Z,3.33
2023-07-22T07:25:59.439Z,3.67
2023-07-22T07:29:02.148Z,4.32
2023-07-22T07:32:10.046Z,3.80
2023-07-22T07:35:14.002Z,4.20
2023-07-22T07:38:17.452Z,3.80
2023-07-22T07:41:20.339Z,4.07
2023-07-22T07:44:23.298Z,4.10
2023-07-22T07:47:25.848Z,4.47
2023-07-22T07:50:28.396Z,3.87
2023-07-22T07:53:32.601Z,4.20
2023-07-22T07:56:35.499Z,4.65
2023-07-22T07:59:39.552Z,4.45
2023-07-22T08:02:42.157Z,3.83
2023-07-22T08:05:44.650Z,4.15
2023-07-22T08:08:47.425Z,3.92
2023-07-22T08:11:49.871Z,3.40
2023-07-22T08:14:54.353Z,3.33
2023-07-22T08:17:57.208Z,3.00
2023-07-22T08:21:04.523Z,3.93
2023-07-22T08:24:07.616Z,2.97
2023-07-22T08:27:10.872Z,3.35
2023-07-22T08:30:13.323Z,3.20
2023-07-22T08:33:24.111Z,3.30
2023-07-22T08:36:30.658Z,3.40
2023-07-22T08:39:33.491Z,3.22
2023-07-22T08:42:37.779Z,3.07
2023-07-22T08:45:41.191Z,3.35
2023-07-22T08:48:48.268Z,2.33
2023-07-22T08:51:51.778Z,3.03
2023-07-22T08:54:56.187Z,2.83
2023-07-22T08:57:59.574Z,2.67
2023-07-22T09:01:03.675Z,3.55
2023-07-22T09:04:06.760Z,3.33
2023-07-22T09:07:16.236Z,3.08
2023-07-22T09:10:18.838Z,3.30
2023-07-22T09:13:22.316Z,2.67
2023-07-22T09:16:28.429Z,2.95
2023-07-22T09:19:33.066Z,3.30
2023-07-22T09:22:35.626Z,3.28
2023-07-22T09:25:38.329Z,3.08
2023-07-22T09:28:50.823Z,3.15
2023-07-22T09:31:55.451Z,2.97
2023-07-22T09:34:58.986Z,2.80
2023-07-22T09:38:03.506Z,2.85
2023-07-22T09:41:10.306Z,2.78
2023-07-22T09:44:16.115Z,3.10
2023-07-22T09:47:18.519Z,2.60
2023-07-22T09:50:23.163Z,2.97
2023-07-22T09:53:26.995Z,3.17
2023-07-22T09:56:30.422Z,2.40
2023-07-22T09:59:34.577Z,3.00
2023-07-22T10:02:39.105Z,3.03
2023-07-22T10:05:43.313Z,2.63
2023-07-22T10:08:47.243Z,3.00
2023-07-22T10:11:50.248Z,3.05
2023-07-22T10:14:53.809Z,3.22
2023-07-22T10:17:57.468Z,2.80
2023-07-22T10:21:00.949Z,2.53
2023-07-22T10:24:09.023Z,2.63
2023-07-22T10:27:12.110Z,2.83
2023-07-22T10:30:16.808Z,2.72
2023-07-22T10:33:22.907Z,2.58
2023-07-22T10:36:33.729Z,2.58
2023-07-22T10:39:36.469Z,2.50
2023-07-22T10:42:39.191Z,2.47
2023-07-22T10:45:44.070Z,2.70
2023-07-22T10:48:49.220Z,2.40
2023-07-22T10:51:52.969Z,2.20
2023-07-22T10:54:57.276Z,2.20
2023-07-22T10:58:06.548Z,2.70
2023-07-22T11:01:29.286Z,2.90
2023-07-22T11:04:39.981Z,2.78
2023-07-22T11:08:04.760Z,2.70
2023-07-22T11:11:07.800Z,2.80
2023-07-22T11:14:18.356Z,2.47
2023-07-22T11:17:33.370Z,2.20
2023-07-22T11:20:36.581Z,2.50
2023-07-22T11:23:38.964Z,2.10
2023-07-22T11:26:42.890Z,2.63
2023-07-22T11:29:47.165Z,2.42
2023-07-22T11:32:51.789Z,2.00
2023-07-22T11:35:54.439Z,2.60
2023-07-22T11:39:07.179Z,2.90
2023-07-22T11:42:09.866Z,2.38
2023-07-22T11:45:12.287Z,2.60
2023-07-22T11:48:15.946Z,2.38
2023-07-22T11:51:22.276Z,3.00
2023-07-22T11:54:26.425Z,2.20
2023-07-22T11:57:28.927Z,2.63
2023-07-22T12:00:34.162Z,2.33
2023-07-22T12:03:37.251Z,2.30
2023-07-22T12:06:40.633Z,2.60
2023-07-22T12:09:49.868Z,2.25
2023-07-22T12:12:52.991Z,2.47
2023-07-22T12:16:08.896Z,2.40
2023-07-22T12:19:13.652Z,2.60
2023-07-22T12:22:16.854Z,2.60
2023-07-22T12:25:19.862Z,1.95
2023-07-22T12:28:23.052Z,3.00
2023-07-22T12:31:25.854Z,2.35
2023-07-22T12:34:29.253Z,2.50
2023-07-22T12:37:32.349Z,2.72
2023-07-22T12:40:35.607Z,2.97
2023-07-22T12:43:38.629Z,2.42
2023-07-22T12:46:41.320Z,2.72
2023-07-22T12:49:44.130Z,3.05
2023-07-22T12:52:46.531Z,3.03
2023-07-22T12:55:49.115Z,2.78
2023-07-22T12:58:52.440Z,2.72
2023-07-22T13:01:55.086Z,3.40
2023-07-22T13:04:57.548Z,3.38
2023-07-22T13:08:02.676Z,3.08
2023-07-22T13:11:05.774Z,3.33
2023-07-22T13:14:08.847Z,2.80
2023-07-22T13:17:11.350Z,2.80
2023-07-22T13:20:13.909Z,2.78
2023-07-22T13:23:16.594Z,2.93
2023-07-22T13:26:22.748Z,2.47
2023-07-22T13:29:25.228Z,2.70
2023-07-22T13:32:28.803Z,3.25
2023-07-22T13:35:31.686Z,2.50
2023-07-22T13:38:34.081Z,3.10
2023-07-22T13:41:38.892Z,2.40
2023-07-22T13:44:41.620Z,2.73
2023-07-22T13:47:44.021Z,3.00
2023-07-22T13:50:47.084Z,2.83
2023-07-22T13:53:50.452Z,3.00
2023-07-22T13:56:54.020Z,2.53
2023-07-22T13:59:56.790Z,2.40
2023-07-22T14:02:59.538Z,2.72
2023-07-22T14:06:01.963Z,2.40
2023-07-22T14:09:04.489Z,2.88
2023-07-22T14:12:07.943Z,3.00
2023-07-22T14:15:11.443Z,2.70
2023-07-22T14:18:18.233Z,2.67
2023-07-22T14:21:21.161Z,3.10
2023-07-22T14:24:23.750Z,2.97
2023-07-22T14:27:26.185Z,3.17
2023-07-22T14:30:29.761Z,2.63
2023-07-22T14:33:32.661Z,2.42
2023-07-22T14:36:35.796Z,2.50
2023-07-22T14:39:38.751Z,2.20
2023-07-22T14:42:41.652Z,2.33
2023-07-22T14:45:45.381Z,2.87
2023-07-22T14:48:48.748Z,2.50
2023-07-22T14:51:52.808Z,2.50
2023-07-22T14:54:56.169Z,2.60
2023-07-22T14:57:59.111Z,2.78
2023-07-22T15:01:03.640Z,2.80
2023-07-22T15:04:07.219Z,2.80
2023-07-22T15:07:09.773Z,2.83
2023-07-22T15:10:13.686Z,2.95
2023-07-22T15:13:16.653Z,2.85
2023-07-22T15:16:20.402Z,2.70
2023-07-22T15:19:23.989Z,2.47
2023-07-22T15:22:26.569Z,2.90
2023-07-22T15:25:29.332Z,2.58
2023-07-22T15:28:33.269Z,2.55
2023-07-22T15:31:35.938Z,2.70
2023-07-22T15:34:40.428Z,2.25
2023-07-22T15:37:43.062Z,2.80
2023-07-22T15:40:45.763Z,2.83
2023-07-22T15:43:48.614Z,2.45
2023-07-22T15:46:52.271Z,3.17
2023-07-22T15:49:54.704Z,2.17
2023-07-22T15:52:57.711Z,3.03
2023-07-22T15:56:01.082Z,2.53
2023-07-22T15:59:04.013Z,2.55
2023-07-22T16:02:06.963Z,2.63
2023-07-22T16:05:22.609Z,2.58
2023-07-22T16:08:26.746Z,2.37
2023-07-22T16:11:30.434Z,2.60
2023-07-22T16:14:33.417Z,1.92
2023-07-22T16:17:36.142Z,2.50
2023-07-22T16:20:40.485Z,2.53
2023-07-22T16:23:43.977Z,2.40
2023-07-22T16:26:46.899Z,2.47
2023-07-22T16:29:53.866Z,2.45
2023-07-22T16:32:56.890Z,2.40
2023-07-22T16:35:59.886Z,2.72
2023-07-22T16:39:02.358Z,3.33
2023-07-22T16:42:05.241Z,2.20
2023-07-22T16:45:08.915Z,2.38
2023-07-22T16:48:11.830Z,2.33
2023-07-22T16:51:17.122Z,2.10
2023-07-22T16:54:20.532Z,2.22
2023-07-22T16:57:23.162Z,2.50
2023-07-22T17:00:25.556Z,2.20
2023-07-22T17:03:28.942Z,2.15
2023-07-22T17:06:32.120Z,2.22
2023-07-22T17:09:36.409Z,1.87
2023-07-22T17:12:40.935Z,2.00
2023-07-22T17:15:43.437Z,1.80
2023-07-22T17:18:47.256Z,1.80
2023-07-22T17:21:49.785Z,1.63
2023-07-22T17:24:52.765Z,1.67
2023-07-22T17:27:55.266Z,1.98
2023-07-22T17:31:01.545Z,1.75
2023-07-22T17:34:04.283Z,2.00
2023-07-22T17:37:07.714Z,1.88
2023-07-22T17:40:11.760Z,1.87
2023-07-22T17:43:14.572Z,2.20
2023-07-22T17:46:16.983Z,1.88
2023-07-22T17:49:19.723Z,2.37
2023-07-22T17:52:23.110Z,2.40
2023-07-22T17:55:26.954Z,1.85
2023-07-22T17:58:29.844Z,2.28
2023-07-22T18:01:33.305Z,2.45
2023-07-22T18:04:36.452Z,2.03
2023-07-22T18:07:38.833Z,2.65
2023-07-22T18:10:42.474Z,2.07
2023-07-22T18:13:44.876Z,2.45
2023-07-22T18:16:47.487Z,2.22
2023-07-22T18:19:50.270Z,2.40
2023-07-22T18:22:53.085Z,2.05
2023-07-22T18:25:55.902Z,2.40
2023-07-22T18:28:58.752Z,1.98
2023-07-22T18:32:01.447Z,2.25
2023-07-22T18:35:04.550Z,2.75
2023-07-22T18:38:07.846Z,2.13
2023-07-22T18:41:10.357Z,2.50
2023-07-22T18:44:13.201Z,2.70
2023-07-22T18:47:17.200Z,2.70
2023-07-22T18:50:19.551Z,2.70
2023-07-22T18:53:21.936Z,2.60
2023-07-22T18:56:24.352Z,2.60
2023-07-22T18:59:27.194Z,3.17
2023-07-22T19:02:29.699Z,2.30
2023-07-22T19:05:32.323Z,2.50
2023-07-22T19:08:34.836Z,2.40
2023-07-22T19:11:37.612Z,2.60
2023-07-22T19:14:41.303Z,2.92
2023-07-22T19:17:43.785Z,2.10
2023-07-22T19:20:56.959Z,2.70
2023-07-22T19:23:59.387Z,2.80
2023-07-22T19:27:02.234Z,3.28
2023-07-22T19:30:05.190Z,3.13
2023-07-22T19:33:07.966Z,2.83
2023-07-22T19:36:12.228Z,3.28
2023-07-22T19:39:15.248Z,2.72
2023-07-22T19:42:18.187Z,2.80
2023-07-22T19:45:21.311Z,2.30
2023-07-22T19:48:25.218Z,2.65
2023-07-22T19:51:28.293Z,2.63
2023-07-22T19:54:31.114Z,3.28
2023-07-22T19:57:33.960Z,3.30
2023-07-22T20:00:38.551Z,3.17
2023-07-22T20:03:42.494Z,2.95
2023-07-22T20:06:47.447Z,2.70
2023-07-22T20:09:49.982Z,2.58
2023-07-22T20:12:52.668Z,2.90
2023-07-22T20:15:55.152Z,2.63
2023-07-22T20:18:57.554Z,2.40
2023-07-22T20:21:59.920Z,2.63
2023-07-22T20:25:02.359Z,2.92
2023-07-22T20:28:05.237Z,2.83
2023-07-22T20:31:08.191Z,3.67
2023-07-22T20:34:11.584Z,2.78
2023-07-22T20:37:14.029Z,3.00
2023-07-22T20:40:16.617Z,2.70
2023-07-22T20:43:19.157Z,3.37
2023-07-22T20:46:21.787Z,2.95
2023-07-22T20:49:27.414Z,3.15
2023-07-22T20:52:30.482Z,2.93
2023-07-22T20:55:33.216Z,2.85
2023-07-22T20:58:36.389Z,2.88
2023-07-22T21:01:38.901Z,2.92
2023-07-22T21:04:42.796Z,2.95
2023-07-22T21:07:45.711Z,3.38
2023-07-22T21:10:50.275Z,2.92
2023-07-22T21:13:53.408Z,2.83
2023-07-22T21:16:56.430Z,3.15
2023-07-22T21:19:59.625Z,3.30
2023-07-22T21:23:02.221Z,3.10
2023-07-22T21:26:04.691Z,3.28
2023-07-22T21:29:07.654Z,2.83
2023-07-22T21:32:10.722Z,2.90
2023-07-22T21:35:13.748Z,3.20
2023-07-22T21:38:16.118Z,3.28
2023-07-22T21:41:18.972Z,3.25
2023-07-22T21:44:21.480Z,3.10
2023-07-22T21:47:24.287Z,3.13
2023-07-22T21:50:26.698Z,3.08
2023-07-22T21:53:31.403Z,2.90
2023-07-22T21:56:35.023Z,3.03
2023-07-22T21:59:37.501Z,2.60
2023-07-22T22:02:40.609Z,3.40
2023-07-22T22:05:43.783Z,3.58
2023-07-22T22:08:46.288Z,3.30
2023-07-22T22:11:49.375Z,3.38
2023-07-22T22:14:57.948Z,3.20
2023-07-22T22:18:00.754Z,3.50
2023-07-22T22:21:04.463Z,3.33
2023-07-22T22:24:07.924Z,3.33
2023-07-22T22:27:11.567Z,3.08
2023-07-22T22:30:14.098Z,3.65
2023-07-22T22:33:17.426Z,3.40
2023-07-22T22:36:19.965Z,3.83
2023-07-22T22:39:22.817Z,3.53
2023-07-22T22:42:26.373Z,4.15
2023-07-22T22:45:29.116Z,4.23
2023-07-22T22:48:31.607Z,4.35
2023-07-22T22:51:33.981Z,4.50
2023-07-22T22:54:36.571Z,4.17
2023-07-22T22:57:39.505Z,4.22
2023-07-22T23:00:44.404Z,4.03
2023-07-22T23:03:47.922Z,4.50
2023-07-22T23:06:50.606Z,4.13
2023-07-22T23:09:52.998Z,4.35
2023-07-22T23:12:55.358Z,3.75
2023-07-22T23:15:57.894Z,4.77
2023-07-22T23:19:00.975Z,4.07
2023-07-22T23:22:03.654Z,4.40
2023-07-22T23:25:06.926Z,4.07
2023-07-22T23:28:14.747Z,4.82
2023-07-22T23:31:17.417Z,4.10
2023-07-22T23:34:27.553Z,4.57
2023-07-22T23:37:32.436Z,3.90
2023-07-22T23:40:37.375Z,4.50
2023-07-22T23:43:40.244Z,4.82
2023-07-22T23:46:42.726Z,4.60
2023-07-22T23:49:46.176Z,4.80
2023-07-22T23:52:49.039Z,4.75
2023-07-22T23:55:51.830Z,4.63
2023-07-22T23:58:54.392Z,4.40
